sensor_id;sensor_type;location;lat;lon;timestamp;pressure;altitude;pressure_sealevel;temperature
33877;BMP180;20166;51.738;7.158;2024-02-04T00:01:59;101678.00;;;11.00
33877;BMP180;20166;51.738;7.158;2024-02-04T00:04:47;101672.00;;;11.00
33877;BMP180;20166;51.738;7.158;2024-02-04T00:07:33;101670.00;;;11.00
33877;BMP180;20166;51.738;7.158;2024-02-04T00:10:20;101669.00;;;11.00
33877;BMP180;20166;51.738;7.158;2024-02-04T00:13:06;101664.00;;;11.00
33877;BMP180;20166;51.738;7.158;2024-02-04T00:15:52;101669.00;;;11.00
33877;BMP180;20166;51.738;7.158;2024-02-04T00:18:39;101651.00;;;11.00
33877;BMP180;20166;51.738;7.158;2024-02-04T00:21:27;101652.00;;;11.00
33877;BMP180;20166;51.738;7.158;2024-02-04T00:24:13;101664.00;;;11.00
33877;BMP180;20166;51.738;7.158;2024-02-04T00:27:00;101657.00;;;11.00
33877;BMP180;20166;51.738;7.158;2024-02-04T00:29:46;101654.00;;;11.00
33877;BMP180;20166;51.738;7.158;2024-02-04T00:32:32;101656.00;;;11.00
33877;BMP180;20166;51.738;7.158;2024-02-04T00:35:19;101664.00;;;10.90
33877;BMP180;20166;51.738;7.158;2024-02-04T00:38:07;101665.00;;;10.90
33877;BMP180;20166;51.738;7.158;2024-02-04T00:40:53;101662.00;;;11.00
33877;BMP180;20166;51.738;7.158;2024-02-04T00:43:41;101661.00;;;11.00
33877;BMP180;20166;51.738;7.158;2024-02-04T00:46:28;101655.00;;;11.00
33877;BMP180;20166;51.738;7.158;2024-02-04T00:49:14;101664.00;;;11.00
33877;BMP180;20166;51.738;7.158;2024-02-04T00:52:00;101659.00;;;11.00
33877;BMP180;20166;51.738;7.158;2024-02-04T00:54:48;101669.00;;;11.00
33877;BMP180;20166;51.738;7.158;2024-02-04T00:57:35;101663.00;;;11.00
33877;BMP180;20166;51.738;7.158;2024-02-04T01:00:21;101664.00;;;11.00
33877;BMP180;20166;51.738;7.158;2024-02-04T01:03:08;101658.00;;;11.00
33877;BMP180;20166;51.738;7.158;2024-02-04T01:05:54;101663.00;;;11.00
33877;BMP180;20166;51.738;7.158;2024-02-04T01:08:40;101655.00;;;11.00
33877;BMP180;20166;51.738;7.158;2024-02-04T01:11:28;101653.00;;;11.00
33877;BMP180;20166;51.738;7.158;2024-02-04T01:14:15;101655.00;;;11.00
33877;BMP180;20166;51.738;7.158;2024-02-04T01:17:02;101656.00;;;11.00
33877;BMP180;20166;51.738;7.158;2024-02-04T01:19:48;101652.00;;;11.00
33877;BMP180;20166;51.738;7.158;2024-02-04T01:22:35;101656.00;;;11.00
33877;BMP180;20166;51.738;7.158;2024-02-04T01:25:21;101659.00;;;11.00
33877;BMP180;20166;51.738;7.158;2024-02-04T01:28:09;101659.00;;;11.00
33877;BMP180;20166;51.738;7.158;2024-02-04T01:30:55;101652.00;;;10.90
33877;BMP180;20166;51.738;7.158;2024-02-04T01:33:42;101658.00;;;10.90
33877;BMP180;20166;51.738;7.158;2024-02-04T01:36:28;101671.00;;;10.90
33877;BMP180;20166;51.738;7.158;2024-02-04T01:39:15;101669.00;;;11.00
33877;BMP180;20166;51.738;7.158;2024-02-04T01:42:02;101647.00;;;11.00
33877;BMP180;20166;51.738;7.158;2024-02-04T01:44:51;101648.00;;;10.90
33877;BMP180;20166;51.738;7.158;2024-02-04T01:47:38;101644.00;;;10.80
33877;BMP180;20166;51.738;7.158;2024-02-04T01:50:24;101647.00;;;10.90
33877;BMP180;20166;51.738;7.158;2024-02-04T01:53:10;101637.00;;;10.90
33877;BMP180;20166;51.738;7.158;2024-02-04T01:55:57;101653.00;;;10.90
33877;BMP180;20166;51.738;7.158;2024-02-04T01:58:45;101625.00;;;10.90
33877;BMP180;20166;51.738;7.158;2024-02-04T02:01:34;101651.00;;;10.90
33877;BMP180;20166;51.738;7.158;2024-02-04T02:04:21;101637.00;;;10.90
33877;BMP180;20166;51.738;7.158;2024-02-04T02:07:08;101634.00;;;10.90
33877;BMP180;20166;51.738;7.158;2024-02-04T02:09:54;101647.00;;;10.90
33877;BMP180;20166;51.738;7.158;2024-02-04T02:12:45;101638.00;;;10.90
33877;BMP180;20166;51.738;7.158;2024-02-04T02:15:37;101648.00;;;11.00
33877;BMP180;20166;51.738;7.158;2024-02-04T02:18:32;101645.00;;;10.90
33877;BMP180;20166;51.738;7.158;2024-02-04T02:21:34;101640.00;;;11.00
33877;BMP180;20166;51.738;7.158;2024-02-04T02:24:34;101639.00;;;11.00
33877;BMP180;20166;51.738;7.158;2024-02-04T02:27:22;101638.00;;;10.90
33877;BMP180;20166;51.738;7.158;2024-02-04T02:30:09;101643.00;;;10.90
33877;BMP180;20166;51.738;7.158;2024-02-04T02:32:56;101649.00;;;10.90
33877;BMP180;20166;51.738;7.158;2024-02-04T02:35:46;101639.00;;;10.90
33877;BMP180;20166;51.738;7.158;2024-02-04T02:38:42;101642.00;;;10.90
33877;BMP180;20166;51.738;7.158;2024-02-04T02:41:32;101625.00;;;10.90
33877;BMP180;20166;51.738;7.158;2024-02-04T02:44:20;101643.00;;;10.90
33877;BMP180;20166;51.738;7.158;2024-02-04T02:47:07;101639.00;;;11.00
33877;BMP180;20166;51.738;7.158;2024-02-04T02:49:54;101657.00;;;11.00
33877;BMP180;20166;51.738;7.158;2024-02-04T02:52:41;101643.00;;;11.00
33877;BMP180;20166;51.738;7.158;2024-02-04T02:55:27;101643.00;;;10.90
33877;BMP180;20166;51.738;7.158;2024-02-04T02:58:15;101644.00;;;11.00
33877;BMP180;20166;51.738;7.158;2024-02-04T03:01:01;101638.00;;;10.90
33877;BMP180;20166;51.738;7.158;2024-02-04T03:03:47;101618.00;;;10.90
33877;BMP180;20166;51.738;7.158;2024-02-04T03:06:34;101642.00;;;10.90
33877;BMP180;20166;51.738;7.158;2024-02-04T03:09:20;101633.00;;;10.90
33877;BMP180;20166;51.738;7.158;2024-02-04T03:12:06;101621.00;;;10.90
33877;BMP180;20166;51.738;7.158;2024-02-04T03:14:54;101624.00;;;10.90
33877;BMP180;20166;51.738;7.158;2024-02-04T03:17:42;101620.00;;;10.90
33877;BMP180;20166;51.738;7.158;2024-02-04T03:20:29;101628.00;;;10.80
33877;BMP180;20166;51.738;7.158;2024-02-04T03:23:15;101616.00;;;10.90
33877;BMP180;20166;51.738;7.158;2024-02-04T03:26:01;101620.00;;;10.90
33877;BMP180;20166;51.738;7.158;2024-02-04T03:28:48;101614.00;;;10.90
33877;BMP180;20166;51.738;7.158;2024-02-04T03:31:35;101606.00;;;10.90
33877;BMP180;20166;51.738;7.158;2024-02-04T03:34:22;101604.00;;;10.90
33877;BMP180;20166;51.738;7.158;2024-02-04T03:37:08;101607.00;;;10.90
33877;BMP180;20166;51.738;7.158;2024-02-04T03:39:54;101602.00;;;10.80
33877;BMP180;20166;51.738;7.158;2024-02-04T03:42:40;101602.00;;;10.80
33877;BMP180;20166;51.738;7.158;2024-02-04T03:45:27;101594.00;;;10.80
33877;BMP180;20166;51.738;7.158;2024-02-04T03:48:15;101605.00;;;10.70
33877;BMP180;20166;51.738;7.158;2024-02-04T03:51:01;101605.00;;;10.70
33877;BMP180;20166;51.738;7.158;2024-02-04T03:53:48;101624.00;;;10.70
33877;BMP180;20166;51.738;7.158;2024-02-04T03:56:35;101620.00;;;10.70
33877;BMP180;20166;51.738;7.158;2024-02-04T03:59:21;101619.00;;;10.70
33877;BMP180;20166;51.738;7.158;2024-02-04T04:02:07;101629.00;;;10.70
33877;BMP180;20166;51.738;7.158;2024-02-04T04:04:55;101620.00;;;10.80
33877;BMP180;20166;51.738;7.158;2024-02-04T04:07:41;101607.00;;;10.80
33877;BMP180;20166;51.738;7.158;2024-02-04T04:10:28;101603.00;;;10.70
33877;BMP180;20166;51.738;7.158;2024-02-04T04:13:14;101600.00;;;10.80
33877;BMP180;20166;51.738;7.158;2024-02-04T04:16:00;101608.00;;;10.80
33877;BMP180;20166;51.738;7.158;2024-02-04T04:18:47;101608.00;;;10.80
33877;BMP180;20166;51.738;7.158;2024-02-04T04:21:34;101599.00;;;10.80
33877;BMP180;20166;51.738;7.158;2024-02-04T04:24:22;101613.00;;;10.80
33877;BMP180;20166;51.738;7.158;2024-02-04T04:27:09;101616.00;;;10.80
33877;BMP180;20166;51.738;7.158;2024-02-04T04:29:55;101616.00;;;10.80
33877;BMP180;20166;51.738;7.158;2024-02-04T04:32:41;101617.00;;;10.80
33877;BMP180;20166;51.738;7.158;2024-02-04T04:35:27;101626.00;;;10.80
33877;BMP180;20166;51.738;7.158;2024-02-04T04:38:15;101621.00;;;10.80
33877;BMP180;20166;51.738;7.158;2024-02-04T04:41:01;101626.00;;;10.80
33877;BMP180;20166;51.738;7.158;2024-02-04T04:43:48;101627.00;;;10.80
33877;BMP180;20166;51.738;7.158;2024-02-04T04:46:37;101619.00;;;10.80
33877;BMP180;20166;51.738;7.158;2024-02-04T04:49:23;101620.00;;;10.80
33877;BMP180;20166;51.738;7.158;2024-02-04T04:52:10;101621.00;;;10.80
33877;BMP180;20166;51.738;7.158;2024-02-04T04:54:57;101621.00;;;10.80
33877;BMP180;20166;51.738;7.158;2024-02-04T04:57:44;101632.00;;;10.80
33877;BMP180;20166;51.738;7.158;2024-02-04T05:00:30;101617.00;;;10.80
33877;BMP180;20166;51.738;7.158;2024-02-04T05:03:16;101622.00;;;10.80
33877;BMP180;20166;51.738;7.158;2024-02-04T05:06:03;101633.00;;;10.80
33877;BMP180;20166;51.738;7.158;2024-02-04T05:08:50;101630.00;;;10.80
33877;BMP180;20166;51.738;7.158;2024-02-04T05:11:37;101633.00;;;10.70
33877;BMP180;20166;51.738;7.158;2024-02-04T05:14:24;101628.00;;;10.70
33877;BMP180;20166;51.738;7.158;2024-02-04T05:17:10;101631.00;;;10.60
33877;BMP180;20166;51.738;7.158;2024-02-04T05:19:56;101626.00;;;10.60
33877;BMP180;20166;51.738;7.158;2024-02-04T05:22:42;101613.00;;;10.60
33877;BMP180;20166;51.738;7.158;2024-02-04T05:25:28;101602.00;;;10.50
33877;BMP180;20166;51.738;7.158;2024-02-04T05:28:16;101590.00;;;10.60
33877;BMP180;20166;51.738;7.158;2024-02-04T05:31:02;101592.00;;;10.50
33877;BMP180;20166;51.738;7.158;2024-02-04T05:33:49;101595.00;;;10.50
33877;BMP180;20166;51.738;7.158;2024-02-04T05:36:35;101585.00;;;10.40
33877;BMP180;20166;51.738;7.158;2024-02-04T05:39:22;101583.00;;;10.40
33877;BMP180;20166;51.738;7.158;2024-02-04T05:42:09;101579.00;;;10.40
33877;BMP180;20166;51.738;7.158;2024-02-04T05:44:57;101570.00;;;10.40
33877;BMP180;20166;51.738;7.158;2024-02-04T05:47:43;101557.00;;;10.40
33877;BMP180;20166;51.738;7.158;2024-02-04T05:50:29;101566.00;;;10.50
33877;BMP180;20166;51.738;7.158;2024-02-04T05:53:16;101573.00;;;10.50
33877;BMP180;20166;51.738;7.158;2024-02-04T05:56:02;101578.00;;;10.50
33877;BMP180;20166;51.738;7.158;2024-02-04T05:58:49;101578.00;;;10.40
33877;BMP180;20166;51.738;7.158;2024-02-04T06:01:37;101584.00;;;10.50
33877;BMP180;20166;51.738;7.158;2024-02-04T06:04:24;101578.00;;;10.60
33877;BMP180;20166;51.738;7.158;2024-02-04T06:07:10;101570.00;;;10.60
33877;BMP180;20166;51.738;7.158;2024-02-04T06:09:56;101555.00;;;10.60
33877;BMP180;20166;51.738;7.158;2024-02-04T06:12:44;101562.00;;;10.60
33877;BMP180;20166;51.738;7.158;2024-02-04T06:15:31;101557.00;;;10.50
33877;BMP180;20166;51.738;7.158;2024-02-04T06:18:19;101558.00;;;10.50
33877;BMP180;20166;51.738;7.158;2024-02-04T06:21:06;101558.00;;;10.50
33877;BMP180;20166;51.738;7.158;2024-02-04T06:23:52;101558.00;;;10.60
33877;BMP180;20166;51.738;7.158;2024-02-04T06:26:39;101546.00;;;10.60
33877;BMP180;20166;51.738;7.158;2024-02-04T06:29:26;101543.00;;;10.60
33877;BMP180;20166;51.738;7.158;2024-02-04T06:32:12;101549.00;;;10.60
33877;BMP180;20166;51.738;7.158;2024-02-04T06:34:59;101534.00;;;10.60
33877;BMP180;20166;51.738;7.158;2024-02-04T06:37:46;101527.00;;;10.60
33877;BMP180;20166;51.738;7.158;2024-02-04T06:40:32;101512.00;;;10.60
33877;BMP180;20166;51.738;7.158;2024-02-04T06:43:19;101522.00;;;10.60
33877;BMP180;20166;51.738;7.158;2024-02-04T06:46:05;101539.00;;;10.60
33877;BMP180;20166;51.738;7.158;2024-02-04T06:48:52;101534.00;;;10.70
33877;BMP180;20166;51.738;7.158;2024-02-04T06:51:40;101518.00;;;10.60
33877;BMP180;20166;51.738;7.158;2024-02-04T06:54:26;101522.00;;;10.60
33877;BMP180;20166;51.738;7.158;2024-02-04T06:57:13;101521.00;;;10.60
33877;BMP180;20166;51.738;7.158;2024-02-04T06:59:59;101522.00;;;10.60
33877;BMP180;20166;51.738;7.158;2024-02-04T07:02:45;101533.00;;;10.70
33877;BMP180;20166;51.738;7.158;2024-02-04T07:05:32;101521.00;;;10.60
33877;BMP180;20166;51.738;7.158;2024-02-04T07:08:20;101521.00;;;10.60
33877;BMP180;20166;51.738;7.158;2024-02-04T07:11:06;101538.00;;;10.60
33877;BMP180;20166;51.738;7.158;2024-02-04T07:13:53;101526.00;;;10.60
33877;BMP180;20166;51.738;7.158;2024-02-04T07:16:43;101528.00;;;10.70
33877;BMP180;20166;51.738;7.158;2024-02-04T07:19:30;101536.00;;;10.70
33877;BMP180;20166;51.738;7.158;2024-02-04T07:22:16;101526.00;;;10.70
33877;BMP180;20166;51.738;7.158;2024-02-04T07:25:04;101546.00;;;10.80
33877;BMP180;20166;51.738;7.158;2024-02-04T07:27:51;101542.00;;;10.80
33877;BMP180;20166;51.738;7.158;2024-02-04T07:30:38;101539.00;;;10.70
33877;BMP180;20166;51.738;7.158;2024-02-04T07:33:24;101524.00;;;10.70
33877;BMP180;20166;51.738;7.158;2024-02-04T07:36:14;101524.00;;;10.80
33877;BMP180;20166;51.738;7.158;2024-02-04T07:39:00;101521.00;;;10.80
33877;BMP180;20166;51.738;7.158;2024-02-04T07:41:51;101534.00;;;10.80
33877;BMP180;20166;51.738;7.158;2024-02-04T07:44:38;101530.00;;;10.80
33877;BMP180;20166;51.738;7.158;2024-02-04T07:47:25;101535.00;;;10.80
33877;BMP180;20166;51.738;7.158;2024-02-04T07:50:11;101533.00;;;10.80
33877;BMP180;20166;51.738;7.158;2024-02-04T07:52:58;101535.00;;;10.80
33877;BMP180;20166;51.738;7.158;2024-02-04T07:55:44;101531.00;;;10.80
33877;BMP180;20166;51.738;7.158;2024-02-04T07:58:32;101528.00;;;10.80
33877;BMP180;20166;51.738;7.158;2024-02-04T08:01:18;101531.00;;;10.80
33877;BMP180;20166;51.738;7.158;2024-02-04T08:04:04;101538.00;;;10.80
33877;BMP180;20166;51.738;7.158;2024-02-04T08:06:54;101532.00;;;10.80
33877;BMP180;20166;51.738;7.158;2024-02-04T08:09:40;101518.00;;;10.80
33877;BMP180;20166;51.738;7.158;2024-02-04T08:12:27;101522.00;;;10.90
33877;BMP180;20166;51.738;7.158;2024-02-04T08:15:15;101528.00;;;10.90
33877;BMP180;20166;51.738;7.158;2024-02-04T08:18:01;101525.00;;;11.00
33877;BMP180;20166;51.738;7.158;2024-02-04T08:20:52;101533.00;;;10.90
33877;BMP180;20166;51.738;7.158;2024-02-04T08:23:38;101525.00;;;10.90
33877;BMP180;20166;51.738;7.158;2024-02-04T08:26:25;101530.00;;;11.00
33877;BMP180;20166;51.738;7.158;2024-02-04T08:29:12;101528.00;;;11.10
33877;BMP180;20166;51.738;7.158;2024-02-04T08:31:59;101515.00;;;11.10
33877;BMP180;20166;51.738;7.158;2024-02-04T08:34:45;101513.00;;;11.10
33877;BMP180;20166;51.738;7.158;2024-02-04T08:37:32;101491.00;;;11.00
33877;BMP180;20166;51.738;7.158;2024-02-04T08:40:18;101521.00;;;11.10
33877;BMP180;20166;51.738;7.158;2024-02-04T08:43:05;101513.00;;;11.00
33877;BMP180;20166;51.738;7.158;2024-02-04T08:45:51;101523.00;;;11.00
33877;BMP180;20166;51.738;7.158;2024-02-04T08:48:39;101525.00;;;11.00
33877;BMP180;20166;51.738;7.158;2024-02-04T08:51:25;101531.00;;;11.10
33877;BMP180;20166;51.738;7.158;2024-02-04T08:54:15;101530.00;;;11.10
33877;BMP180;20166;51.738;7.158;2024-02-04T08:57:02;101534.00;;;11.00
33877;BMP180;20166;51.738;7.158;2024-02-04T08:59:49;101524.00;;;11.10
33877;BMP180;20166;51.738;7.158;2024-02-04T09:02:35;101519.00;;;11.10
33877;BMP180;20166;51.738;7.158;2024-02-04T09:05:23;101519.00;;;11.20
33877;BMP180;20166;51.738;7.158;2024-02-04T09:08:09;101534.00;;;11.20
33877;BMP180;20166;51.738;7.158;2024-02-04T09:10:56;101523.00;;;11.20
33877;BMP180;20166;51.738;7.158;2024-02-04T09:13:43;101528.00;;;11.20
33877;BMP180;20166;51.738;7.158;2024-02-04T09:16:29;101526.00;;;11.20
33877;BMP180;20166;51.738;7.158;2024-02-04T09:19:15;101524.00;;;11.20
33877;BMP180;20166;51.738;7.158;2024-02-04T09:22:03;101517.00;;;11.20
33877;BMP180;20166;51.738;7.158;2024-02-04T09:24:50;101519.00;;;11.20
33877;BMP180;20166;51.738;7.158;2024-02-04T09:27:36;101520.00;;;11.20
33877;BMP180;20166;51.738;7.158;2024-02-04T09:30:23;101513.00;;;11.20
33877;BMP180;20166;51.738;7.158;2024-02-04T09:33:09;101525.00;;;11.20
33877;BMP180;20166;51.738;7.158;2024-02-04T09:35:55;101532.00;;;11.20
33877;BMP180;20166;51.738;7.158;2024-02-04T09:38:43;101536.00;;;11.20
33877;BMP180;20166;51.738;7.158;2024-02-04T09:41:30;101537.00;;;11.10
33877;BMP180;20166;51.738;7.158;2024-02-04T09:44:17;101537.00;;;11.10
33877;BMP180;20166;51.738;7.158;2024-02-04T09:47:04;101545.00;;;11.10
33877;BMP180;20166;51.738;7.158;2024-02-04T09:49:51;101544.00;;;11.10
33877;BMP180;20166;51.738;7.158;2024-02-04T09:52:43;101554.00;;;11.00
33877;BMP180;20166;51.738;7.158;2024-02-04T09:55:35;101545.00;;;11.00
33877;BMP180;20166;51.738;7.158;2024-02-04T09:58:22;101550.00;;;11.00
33877;BMP180;20166;51.738;7.158;2024-02-04T10:01:08;101558.00;;;11.00
33877;BMP180;20166;51.738;7.158;2024-02-04T10:03:56;101558.00;;;11.00
33877;BMP180;20166;51.738;7.158;2024-02-04T10:06:42;101559.00;;;11.00
33877;BMP180;20166;51.738;7.158;2024-02-04T10:09:29;101546.00;;;11.00
33877;BMP180;20166;51.738;7.158;2024-02-04T10:12:18;101537.00;;;11.00
33877;BMP180;20166;51.738;7.158;2024-02-04T10:15:05;101532.00;;;10.90
33877;BMP180;20166;51.738;7.158;2024-02-04T10:17:51;101540.00;;;10.90
33877;BMP180;20166;51.738;7.158;2024-02-04T10:20:39;101548.00;;;11.00
33877;BMP180;20166;51.738;7.158;2024-02-04T10:23:25;101539.00;;;10.90
33877;BMP180;20166;51.738;7.158;2024-02-04T10:26:12;101534.00;;;10.90
33877;BMP180;20166;51.738;7.158;2024-02-04T10:29:02;101532.00;;;11.00
33877;BMP180;20166;51.738;7.158;2024-02-04T10:31:48;101520.00;;;10.90
33877;BMP180;20166;51.738;7.158;2024-02-04T10:34:37;101519.00;;;10.90
33877;BMP180;20166;51.738;7.158;2024-02-04T10:37:24;101522.00;;;10.90
33877;BMP180;20166;51.738;7.158;2024-02-04T10:40:14;101528.00;;;10.90
33877;BMP180;20166;51.738;7.158;2024-02-04T10:43:04;101535.00;;;10.90
33877;BMP180;20166;51.738;7.158;2024-02-04T10:45:56;101521.00;;;10.90
33877;BMP180;20166;51.738;7.158;2024-02-04T10:48:43;101513.00;;;11.00
33877;BMP180;20166;51.738;7.158;2024-02-04T10:51:31;101521.00;;;10.90
33877;BMP180;20166;51.738;7.158;2024-02-04T10:54:19;101520.00;;;10.90
33877;BMP180;20166;51.738;7.158;2024-02-04T10:57:12;101515.00;;;10.90
33877;BMP180;20166;51.738;7.158;2024-02-04T10:59:59;101515.00;;;10.90
33877;BMP180;20166;51.738;7.158;2024-02-04T11:02:51;101534.00;;;10.90
33877;BMP180;20166;51.738;7.158;2024-02-04T11:05:39;101525.00;;;10.90
33877;BMP180;20166;51.738;7.158;2024-02-04T11:08:27;101515.00;;;10.90
33877;BMP180;20166;51.738;7.158;2024-02-04T11:11:15;101520.00;;;11.00
33877;BMP180;20166;51.738;7.158;2024-02-04T11:14:04;101523.00;;;10.90
33877;BMP180;20166;51.738;7.158;2024-02-04T11:17:14;101519.00;;;11.00
33877;BMP180;20166;51.738;7.158;2024-02-04T11:20:21;101511.00;;;11.00
33877;BMP180;20166;51.738;7.158;2024-02-04T11:23:30;101513.00;;;11.10
33877;BMP180;20166;51.738;7.158;2024-02-04T11:26:20;101500.00;;;11.20
33877;BMP180;20166;51.738;7.158;2024-02-04T11:29:07;101488.00;;;11.20
33877;BMP180;20166;51.738;7.158;2024-02-04T11:31:53;101486.00;;;11.20
33877;BMP180;20166;51.738;7.158;2024-02-04T11:34:44;101476.00;;;11.30
33877;BMP180;20166;51.738;7.158;2024-02-04T11:37:32;101467.00;;;11.30
33877;BMP180;20166;51.738;7.158;2024-02-04T11:40:20;101476.00;;;11.40
33877;BMP180;20166;51.738;7.158;2024-02-04T11:43:12;101462.00;;;11.40
33877;BMP180;20166;51.738;7.158;2024-02-04T11:45:58;101471.00;;;11.50
33877;BMP180;20166;51.738;7.158;2024-02-04T11:48:51;101474.00;;;11.50
33877;BMP180;20166;51.738;7.158;2024-02-04T11:51:38;101464.00;;;11.60
33877;BMP180;20166;51.738;7.158;2024-02-04T11:54:28;101473.00;;;11.60
33877;BMP180;20166;51.738;7.158;2024-02-04T11:57:15;101456.00;;;11.60
33877;BMP180;20166;51.738;7.158;2024-02-04T12:00:01;101444.00;;;11.60
33877;BMP180;20166;51.738;7.158;2024-02-04T12:02:59;101435.00;;;11.70
33877;BMP180;20166;51.738;7.158;2024-02-04T12:05:46;101456.00;;;11.80
33877;BMP180;20166;51.738;7.158;2024-02-04T12:08:33;101443.00;;;11.80
33877;BMP180;20166;51.738;7.158;2024-02-04T12:11:21;101449.00;;;11.80
33877;BMP180;20166;51.738;7.158;2024-02-04T12:14:08;101448.00;;;11.70
33877;BMP180;20166;51.738;7.158;2024-02-04T12:16:56;101450.00;;;11.70
33877;BMP180;20166;51.738;7.158;2024-02-04T12:19:42;101464.00;;;11.60
33877;BMP180;20166;51.738;7.158;2024-02-04T12:22:29;101454.00;;;11.60
33877;BMP180;20166;51.738;7.158;2024-02-04T12:25:16;101463.00;;;11.50
33877;BMP180;20166;51.738;7.158;2024-02-04T12:28:05;101449.00;;;11.50
33877;BMP180;20166;51.738;7.158;2024-02-04T12:30:54;101440.00;;;11.50
33877;BMP180;20166;51.738;7.158;2024-02-04T12:33:41;101434.00;;;11.50
33877;BMP180;20166;51.738;7.158;2024-02-04T12:36:28;101436.00;;;11.40
33877;BMP180;20166;51.738;7.158;2024-02-04T12:39:15;101423.00;;;11.40
33877;BMP180;20166;51.738;7.158;2024-02-04T12:42:01;101432.00;;;11.40
33877;BMP180;20166;51.738;7.158;2024-02-04T12:44:50;101437.00;;;11.50
33877;BMP180;20166;51.738;7.158;2024-02-04T12:47:37;101432.00;;;11.50
33877;BMP180;20166;51.738;7.158;2024-02-04T12:50:24;101431.00;;;11.50
33877;BMP180;20166;51.738;7.158;2024-02-04T12:53:10;101423.00;;;11.50
33877;BMP180;20166;51.738;7.158;2024-02-04T12:55:58;101416.00;;;11.50
33877;BMP180;20166;51.738;7.158;2024-02-04T12:58:44;101403.00;;;11.60
33877;BMP180;20166;51.738;7.158;2024-02-04T13:01:32;101406.00;;;11.60
33877;BMP180;20166;51.738;7.158;2024-02-04T13:04:19;101398.00;;;11.60
33877;BMP180;20166;51.738;7.158;2024-02-04T13:07:06;101398.00;;;11.60
33877;BMP180;20166;51.738;7.158;2024-02-04T13:09:58;101399.00;;;11.70
33877;BMP180;20166;51.738;7.158;2024-02-04T13:12:44;101401.00;;;11.70
33877;BMP180;20166;51.738;7.158;2024-02-04T13:15:32;101404.00;;;11.70
33877;BMP180;20166;51.738;7.158;2024-02-04T13:18:20;101405.00;;;11.70
33877;BMP180;20166;51.738;7.158;2024-02-04T13:21:06;101412.00;;;11.70
33877;BMP180;20166;51.738;7.158;2024-02-04T13:23:52;101423.00;;;11.60
33877;BMP180;20166;51.738;7.158;2024-02-04T13:26:38;101429.00;;;11.60
33877;BMP180;20166;51.738;7.158;2024-02-04T13:29:26;101418.00;;;11.60
33877;BMP180;20166;51.738;7.158;2024-02-04T13:32:13;101430.00;;;11.60
33877;BMP180;20166;51.738;7.158;2024-02-04T13:35:01;101405.00;;;11.60
33877;BMP180;20166;51.738;7.158;2024-02-04T13:38:00;101404.00;;;11.70
33877;BMP180;20166;51.738;7.158;2024-02-04T13:40:47;101394.00;;;11.70
33877;BMP180;20166;51.738;7.158;2024-02-04T13:43:33;101390.00;;;11.70
33877;BMP180;20166;51.738;7.158;2024-02-04T13:46:20;101380.00;;;11.60
